sensor_id;sensor_type;location;lat;lon;timestamp;P1;durP1;ratioP1;P2;durP2;ratioP2
23394;SDS011;11870;53.084;18.206;2022-11-15T00:01:57;82.28;;;30.42;;
23394;SDS011;11870;53.084;18.206;2022-11-15T00:04:23;79.00;;;29.77;;
23394;SDS011;11870;53.084;18.206;2022-11-15T00:06:49;87.65;;;31.92;;
23394;SDS011;11870;53.084;18.206;2022-11-15T00:09:15;83.70;;;31.15;;
23394;SDS011;11870;53.084;18.206;2022-11-15T00:11:40;81.32;;;30.83;;
23394;SDS011;11870;53.084;18.206;2022-11-15T00:14:06;82.07;;;29.90;;
23394;SDS011;11870;53.084;18.206;2022-11-15T00:16:32;83.50;;;32.20;;
23394;SDS011;11870;53.084;18.206;2022-11-15T00:18:58;81.38;;;32.33;;
23394;SDS011;11870;53.084;18.206;2022-11-15T00:21:24;83.68;;;30.85;;
23394;SDS011;11870;53.084;18.206;2022-11-15T00:23:50;85.13;;;31.40;;
23394;SDS011;11870;53.084;18.206;2022-11-15T00:26:15;80.93;;;29.60;;
23394;SDS011;11870;53.084;18.206;2022-11-15T00:28:41;85.80;;;32.17;;
23394;SDS011;11870;53.084;18.206;2022-11-15T00:31:09;96.68;;;32.58;;
23394;SDS011;11870;53.084;18.206;2022-11-15T00:33:37;88.35;;;32.63;;
23394;SDS011;11870;53.084;18.206;2022-11-15T00:36:06;88.10;;;32.08;;
23394;SDS011;11870;53.084;18.206;2022-11-15T00:38:38;86.82;;;30.75;;
23394;SDS011;11870;53.084;18.206;2022-11-15T00:41:05;89.78;;;31.00;;
23394;SDS011;11870;53.084;18.206;2022-11-15T00:43:32;84.70;;;31.77;;
23394;SDS011;11870;53.084;18.206;2022-11-15T00:45:59;92.10;;;32.70;;
23394;SDS011;11870;53.084;18.206;2022-11-15T00:48:25;90.65;;;32.97;;
23394;SDS011;11870;53.084;18.206;2022-11-15T00:50:51;86.38;;;31.73;;
23394;SDS011;11870;53.084;18.206;2022-11-15T00:53:17;83.03;;;31.88;;
23394;SDS011;11870;53.084;18.206;2022-11-15T00:55:42;92.40;;;32.38;;
23394;SDS011;11870;53.084;18.206;2022-11-15T00:58:09;94.10;;;32.80;;
23394;SDS011;11870;53.084;18.206;2022-11-15T01:00:35;90.93;;;31.77;;
23394;SDS011;11870;53.084;18.206;2022-11-15T01:03:01;88.40;;;32.38;;
23394;SDS011;11870;53.084;18.206;2022-11-15T01:05:27;93.65;;;31.20;;
23394;SDS011;11870;53.084;18.206;2022-11-15T01:07:54;90.97;;;31.45;;
23394;SDS011;11870;53.084;18.206;2022-11-15T01:10:21;87.15;;;32.00;;
23394;SDS011;11870;53.084;18.206;2022-11-15T01:12:48;95.85;;;33.75;;
23394;SDS011;11870;53.084;18.206;2022-11-15T01:15:14;97.97;;;32.92;;
23394;SDS011;11870;53.084;18.206;2022-11-15T01:17:40;90.63;;;32.53;;
23394;SDS011;11870;53.084;18.206;2022-11-15T01:20:06;95.38;;;32.45;;
23394;SDS011;11870;53.084;18.206;2022-11-15T01:22:33;102.80;;;35.47;;
23394;SDS011;11870;53.084;18.206;2022-11-15T01:24:59;89.82;;;31.85;;
23394;SDS011;11870;53.084;18.206;2022-11-15T01:27:25;96.65;;;33.30;;
23394;SDS011;11870;53.084;18.206;2022-11-15T01:29:51;97.82;;;32.38;;
23394;SDS011;11870;53.084;18.206;2022-11-15T01:32:17;92.25;;;33.03;;
23394;SDS011;11870;53.084;18.206;2022-11-15T01:34:42;97.28;;;33.25;;
23394;SDS011;11870;53.084;18.206;2022-11-15T01:37:08;100.63;;;33.42;;
23394;SDS011;11870;53.084;18.206;2022-11-15T01:39:34;100.75;;;33.47;;
23394;SDS011;11870;53.084;18.206;2022-11-15T01:42:00;96.88;;;33.20;;
23394;SDS011;11870;53.084;18.206;2022-11-15T01:47:00;97.35;;;32.10;;
23394;SDS011;11870;53.084;18.206;2022-11-15T01:49:30;95.72;;;31.08;;
23394;SDS011;11870;53.084;18.206;2022-11-15T01:52:00;93.18;;;30.98;;
23394;SDS011;11870;53.084;18.206;2022-11-15T01:54:27;109.80;;;34.58;;
23394;SDS011;11870;53.084;18.206;2022-11-15T01:56:59;105.78;;;34.70;;
23394;SDS011;11870;53.084;18.206;2022-11-15T01:59:31;105.10;;;33.35;;
23394;SDS011;11870;53.084;18.206;2022-11-15T02:01:58;98.28;;;33.85;;
23394;SDS011;11870;53.084;18.206;2022-11-15T02:04:26;95.25;;;32.95;;
23394;SDS011;11870;53.084;18.206;2022-11-15T02:06:53;89.78;;;30.15;;
23394;SDS011;11870;53.084;18.206;2022-11-15T02:09:19;83.15;;;29.15;;
23394;SDS011;11870;53.084;18.206;2022-11-15T02:11:46;87.78;;;28.60;;
23394;SDS011;11870;53.084;18.206;2022-11-15T02:14:14;85.15;;;29.42;;
23394;SDS011;11870;53.084;18.206;2022-11-15T02:19:13;89.40;;;29.35;;
23394;SDS011;11870;53.084;18.206;2022-11-15T02:21:51;95.57;;;31.33;;
23394;SDS011;11870;53.084;18.206;2022-11-15T02:30:37;85.57;;;25.02;;
23394;SDS011;11870;53.084;18.206;2022-11-15T02:33:21;85.38;;;27.67;;
23394;SDS011;11870;53.084;18.206;2022-11-15T02:35:57;77.18;;;25.02;;
23394;SDS011;11870;53.084;18.206;2022-11-15T02:43:54;81.53;;;26.95;;
23394;SDS011;11870;53.084;18.206;2022-11-15T02:49:09;89.80;;;26.63;;
23394;SDS011;11870;53.084;18.206;2022-11-15T02:51:37;83.00;;;27.67;;
23394;SDS011;11870;53.084;18.206;2022-11-15T02:54:05;84.70;;;26.05;;
23394;SDS011;11870;53.084;18.206;2022-11-15T02:56:30;86.53;;;26.05;;
23394;SDS011;11870;53.084;18.206;2022-11-15T02:59:00;81.78;;;26.30;;
23394;SDS011;11870;53.084;18.206;2022-11-15T03:04:47;86.68;;;26.67;;
23394;SDS011;11870;53.084;18.206;2022-11-15T03:07:32;81.53;;;26.10;;
23394;SDS011;11870;53.084;18.206;2022-11-15T03:10:22;87.93;;;28.13;;
23394;SDS011;11870;53.084;18.206;2022-11-15T03:12:58;94.43;;;27.98;;
23394;SDS011;11870;53.084;18.206;2022-11-15T03:15:41;83.53;;;25.58;;
23394;SDS011;11870;53.084;18.206;2022-11-15T03:18:22;92.35;;;28.52;;
23394;SDS011;11870;53.084;18.206;2022-11-15T03:20:58;92.13;;;28.35;;
23394;SDS011;11870;53.084;18.206;2022-11-15T03:23:26;88.15;;;27.05;;
23394;SDS011;11870;53.084;18.206;2022-11-15T03:25:55;91.22;;;26.52;;
23394;SDS011;11870;53.084;18.206;2022-11-15T03:28:23;78.78;;;26.90;;
23394;SDS011;11870;53.084;18.206;2022-11-15T03:30:53;92.63;;;27.65;;
23394;SDS011;11870;53.084;18.206;2022-11-15T03:33:21;86.68;;;28.15;;
23394;SDS011;11870;53.084;18.206;2022-11-15T03:35:47;84.50;;;26.15;;
23394;SDS011;11870;53.084;18.206;2022-11-15T03:38:22;91.78;;;28.63;;
23394;SDS011;11870;53.084;18.206;2022-11-15T03:41:00;93.63;;;27.00;;
23394;SDS011;11870;53.084;18.206;2022-11-15T03:43:33;95.30;;;27.85;;
23394;SDS011;11870;53.084;18.206;2022-11-15T03:46:13;103.75;;;30.05;;
23394;SDS011;11870;53.084;18.206;2022-11-15T03:48:49;98.88;;;28.52;;
23394;SDS011;11870;53.084;18.206;2022-11-15T03:51:19;95.40;;;27.50;;
23394;SDS011;11870;53.084;18.206;2022-11-15T03:53:46;97.53;;;27.73;;
23394;SDS011;11870;53.084;18.206;2022-11-15T03:56:12;105.40;;;30.70;;
23394;SDS011;11870;53.084;18.206;2022-11-15T03:58:37;107.47;;;30.27;;
23394;SDS011;11870;53.084;18.206;2022-11-15T04:01:03;113.82;;;30.55;;
23394;SDS011;11870;53.084;18.206;2022-11-15T04:03:29;93.78;;;29.00;;
23394;SDS011;11870;53.084;18.206;2022-11-15T04:05:55;100.63;;;28.75;;
23394;SDS011;11870;53.084;18.206;2022-11-15T04:08:21;105.78;;;31.48;;
23394;SDS011;11870;53.084;18.206;2022-11-15T04:10:48;104.50;;;29.90;;
23394;SDS011;11870;53.084;18.206;2022-11-15T04:13:14;98.47;;;29.75;;
23394;SDS011;11870;53.084;18.206;2022-11-15T04:15:40;93.60;;;27.95;;
23394;SDS011;11870;53.084;18.206;2022-11-15T04:18:06;89.95;;;26.48;;
23394;SDS011;11870;53.084;18.206;2022-11-15T04:20:32;82.00;;;25.50;;
23394;SDS011;11870;53.084;18.206;2022-11-15T04:23:17;84.80;;;26.23;;
23394;SDS011;11870;53.084;18.206;2022-11-15T04:26:04;80.90;;;23.77;;
23394;SDS011;11870;53.084;18.206;2022-11-15T04:28:39;79.95;;;24.45;;
23394;SDS011;11870;53.084;18.206;2022-11-15T04:31:26;88.40;;;25.65;;
23394;SDS011;11870;53.084;18.206;2022-11-15T04:33:52;94.38;;;26.80;;
23394;SDS011;11870;53.084;18.206;2022-11-15T04:36:18;81.60;;;24.67;;
23394;SDS011;11870;53.084;18.206;2022-11-15T04:39:05;86.68;;;25.52;;
23394;SDS011;11870;53.084;18.206;2022-11-15T04:41:31;77.43;;;25.00;;
23394;SDS011;11870;53.084;18.206;2022-11-15T04:43:57;85.50;;;26.38;;
23394;SDS011;11870;53.084;18.206;2022-11-15T04:46:23;80.72;;;24.10;;
23394;SDS011;11870;53.084;18.206;2022-11-15T04:48:50;77.45;;;24.42;;
23394;SDS011;11870;53.084;18.206;2022-11-15T04:51:17;93.70;;;25.52;;
23394;SDS011;11870;53.084;18.206;2022-11-15T04:53:43;75.55;;;23.85;;
23394;SDS011;11870;53.084;18.206;2022-11-15T04:56:09;87.88;;;24.15;;
23394;SDS011;11870;53.084;18.206;2022-11-15T04:58:34;92.57;;;25.30;;
23394;SDS011;11870;53.084;18.206;2022-11-15T05:01:13;89.32;;;26.10;;
23394;SDS011;11870;53.084;18.206;2022-11-15T05:03:43;84.78;;;25.00;;
23394;SDS011;11870;53.084;18.206;2022-11-15T05:06:27;89.72;;;25.88;;
23394;SDS011;11870;53.084;18.206;2022-11-15T05:08:53;93.13;;;26.98;;
23394;SDS011;11870;53.084;18.206;2022-11-15T05:11:20;88.72;;;26.50;;
23394;SDS011;11870;53.084;18.206;2022-11-15T05:13:46;95.85;;;26.92;;
23394;SDS011;11870;53.084;18.206;2022-11-15T05:16:12;98.70;;;27.77;;
23394;SDS011;11870;53.084;18.206;2022-11-15T05:18:38;91.55;;;27.83;;
23394;SDS011;11870;53.084;18.206;2022-11-15T05:21:08;91.00;;;26.98;;
23394;SDS011;11870;53.084;18.206;2022-11-15T05:23:35;101.85;;;27.27;;
23394;SDS011;11870;53.084;18.206;2022-11-15T05:26:02;96.90;;;27.88;;
23394;SDS011;11870;53.084;18.206;2022-11-15T05:28:30;103.80;;;28.52;;
23394;SDS011;11870;53.084;18.206;2022-11-15T05:31:00;104.70;;;27.20;;
23394;SDS011;11870;53.084;18.206;2022-11-15T05:33:30;98.60;;;27.90;;
23394;SDS011;11870;53.084;18.206;2022-11-15T05:36:17;93.60;;;27.00;;
23394;SDS011;11870;53.084;18.206;2022-11-15T05:38:53;95.38;;;27.42;;
23394;SDS011;11870;53.084;18.206;2022-11-15T05:41:20;97.72;;;26.73;;
23394;SDS011;11870;53.084;18.206;2022-11-15T05:43:51;93.55;;;26.92;;
23394;SDS011;11870;53.084;18.206;2022-11-15T05:46:18;92.20;;;24.95;;
23394;SDS011;11870;53.084;18.206;2022-11-15T05:48:45;98.55;;;26.98;;
23394;SDS011;11870;53.084;18.206;2022-11-15T05:51:15;94.18;;;25.77;;
23394;SDS011;11870;53.084;18.206;2022-11-15T05:53:44;91.38;;;28.25;;
23394;SDS011;11870;53.084;18.206;2022-11-15T05:56:11;93.57;;;26.85;;
23394;SDS011;11870;53.084;18.206;2022-11-15T05:58:38;96.75;;;28.40;;
23394;SDS011;11870;53.084;18.206;2022-11-15T06:01:04;96.78;;;26.42;;
23394;SDS011;11870;53.084;18.206;2022-11-15T06:03:30;89.70;;;26.38;;
23394;SDS011;11870;53.084;18.206;2022-11-15T06:05:56;93.20;;;26.92;;
23394;SDS011;11870;53.084;18.206;2022-11-15T06:08:22;105.60;;;30.10;;
23394;SDS011;11870;53.084;18.206;2022-11-15T06:10:48;90.00;;;26.45;;
23394;SDS011;11870;53.084;18.206;2022-11-15T06:13:14;98.53;;;27.48;;
23394;SDS011;11870;53.084;18.206;2022-11-15T06:15:40;91.30;;;25.88;;
23394;SDS011;11870;53.084;18.206;2022-11-15T06:18:06;87.30;;;25.30;;
23394;SDS011;11870;53.084;18.206;2022-11-15T06:20:32;94.65;;;25.95;;
23394;SDS011;11870;53.084;18.206;2022-11-15T06:23:01;93.15;;;26.00;;
23394;SDS011;11870;53.084;18.206;2022-11-15T06:25:29;91.32;;;25.67;;
23394;SDS011;11870;53.084;18.206;2022-11-15T06:27:57;90.68;;;26.65;;
23394;SDS011;11870;53.084;18.206;2022-11-15T06:30:24;90.60;;;25.55;;
23394;SDS011;11870;53.084;18.206;2022-11-15T06:32:51;88.18;;;26.58;;
23394;SDS011;11870;53.084;18.206;2022-11-15T06:35:23;98.72;;;27.00;;
23394;SDS011;11870;53.084;18.206;2022-11-15T06:37:49;100.07;;;27.55;;
23394;SDS011;11870;53.084;18.206;2022-11-15T06:40:15;93.88;;;26.48;;
23394;SDS011;11870;53.084;18.206;2022-11-15T06:42:41;88.45;;;26.77;;
23394;SDS011;11870;53.084;18.206;2022-11-15T06:45:07;93.03;;;27.00;;
23394;SDS011;11870;53.084;18.206;2022-11-15T06:47:33;101.30;;;28.85;;
23394;SDS011;11870;53.084;18.206;2022-11-15T06:49:59;103.20;;;27.77;;
23394;SDS011;11870;53.084;18.206;2022-11-15T06:52:25;91.82;;;25.60;;
23394;SDS011;11870;53.084;18.206;2022-11-15T06:54:51;96.30;;;27.02;;
23394;SDS011;11870;53.084;18.206;2022-11-15T06:57:16;90.65;;;27.27;;
23394;SDS011;11870;53.084;18.206;2022-11-15T06:59:42;92.00;;;26.63;;
23394;SDS011;11870;53.084;18.206;2022-11-15T07:02:12;91.93;;;25.58;;
23394;SDS011;11870;53.084;18.206;2022-11-15T07:04:39;88.75;;;26.00;;
23394;SDS011;11870;53.084;18.206;2022-11-15T07:07:04;106.53;;;28.73;;
23394;SDS011;11870;53.084;18.206;2022-11-15T07:09:30;98.70;;;28.23;;
23394;SDS011;11870;53.084;18.206;2022-11-15T07:11:56;93.85;;;27.27;;
23394;SDS011;11870;53.084;18.206;2022-11-15T07:14:22;96.30;;;26.90;;
23394;SDS011;11870;53.084;18.206;2022-11-15T07:16:48;95.85;;;27.38;;
23394;SDS011;11870;53.084;18.206;2022-11-15T07:19:14;98.78;;;28.25;;
23394;SDS011;11870;53.084;18.206;2022-11-15T07:21:40;87.05;;;25.85;;
23394;SDS011;11870;53.084;18.206;2022-11-15T07:24:06;81.88;;;24.77;;
23394;SDS011;11870;53.084;18.206;2022-11-15T07:26:32;94.68;;;27.58;;
23394;SDS011;11870;53.084;18.206;2022-11-15T07:28:58;95.10;;;25.73;;
23394;SDS011;11870;53.084;18.206;2022-11-15T07:31:23;97.85;;;26.63;;
23394;SDS011;11870;53.084;18.206;2022-11-15T07:33:51;90.68;;;26.60;;
23394;SDS011;11870;53.084;18.206;2022-11-15T07:36:16;96.13;;;26.63;;
23394;SDS011;11870;53.084;18.206;2022-11-15T07:38:43;76.78;;;24.38;;
23394;SDS011;11870;53.084;18.206;2022-11-15T07:41:09;92.07;;;25.80;;
23394;SDS011;11870;53.084;18.206;2022-11-15T07:43:35;90.88;;;26.02;;
23394;SDS011;11870;53.084;18.206;2022-11-15T07:46:07;88.90;;;25.67;;
23394;SDS011;11870;53.084;18.206;2022-11-15T07:48:35;88.63;;;24.58;;
23394;SDS011;11870;53.084;18.206;2022-11-15T07:51:01;82.75;;;24.92;;
23394;SDS011;11870;53.084;18.206;2022-11-15T07:53:28;84.72;;;24.83;;
23394;SDS011;11870;53.084;18.206;2022-11-15T07:55:53;73.15;;;25.80;;
23394;SDS011;11870;53.084;18.206;2022-11-15T07:58:19;84.75;;;25.13;;
23394;SDS011;11870;53.084;18.206;2022-11-15T08:00:45;76.75;;;25.10;;
23394;SDS011;11870;53.084;18.206;2022-11-15T08:08:49;85.10;;;27.23;;
23394;SDS011;11870;53.084;18.206;2022-11-15T08:11:15;82.65;;;25.63;;
23394;SDS011;11870;53.084;18.206;2022-11-15T08:13:41;90.18;;;27.63;;
23394;SDS011;11870;53.084;18.206;2022-11-15T08:16:07;89.82;;;29.05;;
23394;SDS011;11870;53.084;18.206;2022-11-15T08:18:34;89.93;;;27.17;;
23394;SDS011;11870;53.084;18.206;2022-11-15T08:21:00;90.57;;;27.85;;
23394;SDS011;11870;53.084;18.206;2022-11-15T08:23:27;85.93;;;27.75;;
23394;SDS011;11870;53.084;18.206;2022-11-15T08:25:58;82.25;;;26.98;;
23394;SDS011;11870;53.084;18.206;2022-11-15T08:28:25;80.60;;;26.30;;
23394;SDS011;11870;53.084;18.206;2022-11-15T08:30:51;88.97;;;29.20;;
23394;SDS011;11870;53.084;18.206;2022-11-15T08:33:16;78.93;;;25.58;;
23394;SDS011;11870;53.084;18.206;2022-11-15T08:35:42;73.03;;;25.40;;
23394;SDS011;11870;53.084;18.206;2022-11-15T08:38:09;77.78;;;24.48;;
23394;SDS011;11870;53.084;18.206;2022-11-15T08:40:35;71.20;;;23.83;;
23394;SDS011;11870;53.084;18.206;2022-11-15T08:43:01;70.28;;;23.77;;
23394;SDS011;11870;53.084;18.206;2022-11-15T08:45:28;75.30;;;24.33;;
23394;SDS011;11870;53.084;18.206;2022-11-15T08:47:55;70.28;;;24.23;;
23394;SDS011;11870;53.084;18.206;2022-11-15T08:50:21;70.00;;;24.23;;
23394;SDS011;11870;53.084;18.206;2022-11-15T08:52:47;74.38;;;24.25;;
23394;SDS011;11870;53.084;18.206;2022-11-15T08:55:13;71.97;;;24.83;;
23394;SDS011;11870;53.084;18.206;2022-11-15T08:57:39;71.65;;;25.65;;
23394;SDS011;11870;53.084;18.206;2022-11-15T09:00:06;76.30;;;25.27;;
23394;SDS011;11870;53.084;18.206;2022-11-15T09:02:32;72.90;;;25.63;;
23394;SDS011;11870;53.084;18.206;2022-11-15T09:04:58;61.85;;;22.77;;
23394;SDS011;11870;53.084;18.206;2022-11-15T09:07:24;62.33;;;24.15;;
23394;SDS011;11870;53.084;18.206;2022-11-15T09:09:50;73.50;;;25.58;;
23394;SDS011;11870;53.084;18.206;2022-11-15T09:12:16;76.88;;;24.05;;
23394;SDS011;11870;53.084;18.206;2022-11-15T09:14:42;67.05;;;22.27;;
23394;SDS011;11870;53.084;18.206;2022-11-15T09:17:08;63.85;;;22.10;;
23394;SDS011;11870;53.084;18.206;2022-11-15T09:19:34;58.50;;;21.90;;
23394;SDS011;11870;53.084;18.206;2022-11-15T09:22:00;63.58;;;22.02;;
23394;SDS011;11870;53.084;18.206;2022-11-15T09:24:26;62.17;;;22.65;;
23394;SDS011;11870;53.084;18.206;2022-11-15T09:26:52;65.82;;;23.10;;
23394;SDS011;11870;53.084;18.206;2022-11-15T09:29:18;58.95;;;21.67;;
23394;SDS011;11870;53.084;18.206;2022-11-15T09:31:44;61.35;;;20.13;;
23394;SDS011;11870;53.084;18.206;2022-11-15T09:34:10;59.33;;;20.77;;
23394;SDS011;11870;53.084;18.206;2022-11-15T09:36:37;60.60;;;21.95;;
23394;SDS011;11870;53.084;18.206;2022-11-15T09:39:03;54.97;;;20.80;;
23394;SDS011;11870;53.084;18.206;2022-11-15T09:49:31;55.30;;;20.95;;
23394;SDS011;11870;53.084;18.206;2022-11-15T09:51:57;59.67;;;20.85;;
23394;SDS011;11870;53.084;18.206;2022-11-15T09:54:41;59.97;;;21.80;;
23394;SDS011;11870;53.084;18.206;2022-11-15T09:57:14;63.58;;;23.00;;
23394;SDS011;11870;53.084;18.206;2022-11-15T09:59:51;60.65;;;21.77;;
23394;SDS011;11870;53.084;18.206;2022-11-15T10:04:55;60.38;;;22.50;;
23394;SDS011;11870;53.084;18.206;2022-11-15T10:10:14;71.15;;;23.48;;
23394;SDS011;11870;53.084;18.206;2022-11-15T10:12:50;65.57;;;22.58;;
23394;SDS011;11870;53.084;18.206;2022-11-15T10:15:18;56.38;;;20.90;;
23394;SDS011;11870;53.084;18.206;2022-11-15T10:32:55;60.00;;;22.75;;
23394;SDS011;11870;53.084;18.206;2022-11-15T10:35:30;56.17;;;21.58;;
23394;SDS011;11870;53.084;18.206;2022-11-15T10:38:09;59.58;;;23.17;;
23394;SDS011;11870;53.084;18.206;2022-11-15T10:40:37;56.45;;;21.63;;
23394;SDS011;11870;53.084;18.206;2022-11-15T10:43:05;58.85;;;21.15;;
23394;SDS011;11870;53.084;18.206;2022-11-15T10:45:35;53.33;;;20.95;;
23394;SDS011;11870;53.084;18.206;2022-11-15T10:50:40;64.57;;;22.40;;
23394;SDS011;11870;53.084;18.206;2022-11-15T10:53:20;71.38;;;26.52;;
23394;SDS011;11870;53.084;18.206;2022-11-15T10:55:51;71.03;;;26.90;;
23394;SDS011;11870;53.084;18.206;2022-11-15T10:58:20;75.40;;;25.88;;
23394;SDS011;11870;53.084;18.206;2022-11-15T11:00:55;75.68;;;25.58;;
23394;SDS011;11870;53.084;18.206;2022-11-15T11:06:16;76.32;;;26.10;;
23394;SDS011;11870;53.084;18.206;2022-11-15T11:08:54;67.05;;;24.55;;
23394;SDS011;11870;53.084;18.206;2022-11-15T11:11:20;86.63;;;29.13;;
23394;SDS011;11870;53.084;18.206;2022-11-15T11:13:46;85.03;;;29.58;;
23394;SDS011;11870;53.084;18.206;2022-11-15T11:21:18;73.75;;;28.05;;
23394;SDS011;11870;53.084;18.206;2022-11-15T11:26:37;81.93;;;27.63;;
23394;SDS011;11870;53.084;18.206;2022-11-15T11:35:29;79.63;;;27.98;;
23394;SDS011;11870;53.084;18.206;2022-11-15T11:38:17;75.38;;;26.67;;
23394;SDS011;11870;53.084;18.206;2022-11-15T11:40:59;85.07;;;27.70;;
23394;SDS011;11870;53.084;18.206;2022-11-15T11:51:28;72.53;;;26.48;;
23394;SDS011;11870;53.084;18.206;2022-11-15T11:54:46;79.13;;;27.35;;
23394;SDS011;11870;53.084;18.206;2022-11-15T11:57:39;70.80;;;26.15;;
23394;SDS011;11870;53.084;18.206;2022-11-15T12:00:26;75.95;;;26.65;;
23394;SDS011;11870;53.084;18.206;2022-11-15T12:03:11;71.85;;;26.08;;
23394;SDS011;11870;53.084;18.206;2022-11-15T12:09:12;72.15;;;26.15;;
23394;SDS011;11870;53.084;18.206;2022-11-15T12:12:41;67.90;;;25.35;;
23394;SDS011;11870;53.084;18.206;2022-11-15T12:17:21;72.28;;;25.95;;
23394;SDS011;11870;53.084;18.206;2022-11-15T12:19:49;70.07;;;25.95;;
23394;SDS011;11870;53.084;18.206;2022-11-15T12:22:20;65.90;;;24.90;;
23394;SDS011;11870;53.084;18.206;2022-11-15T12:25:53;69.32;;;23.63;;
23394;SDS011;11870;53.084;18.206;2022-11-15T12:35:34;66.30;;;25.50;;
23394;SDS011;11870;53.084;18.206;2022-11-15T12:38:03;72.68;;;27.75;;
23394;SDS011;11870;53.084;18.206;2022-11-15T12:40:30;60.47;;;24.33;;
23394;SDS011;11870;53.084;18.206;2022-11-15T13:19:02;73.32;;;25.92;;
23394;SDS011;11870;53.084;18.206;2022-11-15T13:36:27;77.90;;;27.33;;
23394;SDS011;11870;53.084;18.206;2022-11-15T13:43:31;77.13;;;25.80;;
23394;SDS011;11870;53.084;18.206;2022-11-15T13:49:50;75.82;;;26.80;;
23394;SDS011;11870;53.084;18.206;2022-11-15T13:52:16;74.15;;;25.58;;
23394;SDS011;11870;53.084;18.206;2022-11-15T13:54:55;71.00;;;24.55;;
23394;SDS011;11870;53.084;18.206;2022-11-15T14:05:25;220.07;;;99.00;;
23394;SDS011;11870;53.084;18.206;2022-11-15T14:07:59;149.18;;;66.97;;
23394;SDS011;11870;53.084;18.206;2022-11-15T14:10:38;82.95;;;29.88;;
23394;SDS011;11870;53.084;18.206;2022-11-15T14:13:26;80.85;;;24.95;;
23394;SDS011;11870;53.084;18.206;2022-11-15T14:15:53;81.70;;;28.52;;
23394;SDS011;11870;53.084;18.206;2022-11-15T14:21:07;74.80;;;24.80;;
23394;SDS011;11870;53.084;18.206;2022-11-15T14:23:33;73.32;;;24.05;;
23394;SDS011;11870;53.084;18.206;2022-11-15T14:25:59;76.18;;;24.65;;
23394;SDS011;11870;53.084;18.206;2022-11-15T14:30:52;66.75;;;21.08;;
23394;SDS011;11870;53.084;18.206;2022-11-15T14:33:22;64.75;;;26.02;;
23394;SDS011;11870;53.084;18.206;2022-11-15T14:36:12;64.05;;;23.13;;
23394;SDS011;11870;53.084;18.206;2022-11-15T14:38:40;58.08;;;19.10;;
23394;SDS011;11870;53.084;18.206;2022-11-15T14:41:11;52.95;;;19.30;;
23394;SDS011;11870;53.084;18.206;2022-11-15T14:43:47;56.20;;;20.48;;
23394;SDS011;11870;53.084;18.206;2022-11-15T14:46:13;63.10;;;20.60;;
23394;SDS011;11870;53.084;18.206;2022-11-15T14:48:39;58.72;;;20.65;;
23394;SDS011;11870;53.084;18.206;2022-11-15T14:51:12;67.85;;;21.35;;
23394;SDS011;11870;53.084;18.206;2022-11-15T14:53:41;69.40;;;24.98;;
23394;SDS011;11870;53.084;18.206;2022-11-15T14:56:08;76.78;;;27.80;;
23394;SDS011;11870;53.084;18.206;2022-11-15T14:58:34;72.97;;;25.33;;
23394;SDS011;11870;53.084;18.206;2022-11-15T15:03:51;78.18;;;25.73;;
23394;SDS011;11870;53.084;18.206;2022-11-15T15:06:28;76.63;;;25.63;;
23394;SDS011;11870;53.084;18.206;2022-11-15T15:08:56;88.78;;;33.13;;
23394;SDS011;11870;53.084;18.206;2022-11-15T15:11:26;76.60;;;24.38;;
23394;SDS011;11870;53.084;18.206;2022-11-15T15:13:57;81.07;;;26.73;;
23394;SDS011;11870;53.084;18.206;2022-11-15T15:16:26;62.95;;;21.95;;
23394;SDS011;11870;53.084;18.206;2022-11-15T15:18:52;60.38;;;21.80;;
23394;SDS011;11870;53.084;18.206;2022-11-15T15:21:25;64.75;;;22.67;;
23394;SDS011;11870;53.084;18.206;2022-11-15T15:23:53;65.57;;;22.13;;
23394;SDS011;11870;53.084;18.206;2022-11-15T15:26:20;64.50;;;23.13;;
23394;SDS011;11870;53.084;18.206;2022-11-15T15:28:46;57.95;;;20.73;;
23394;SDS011;11870;53.084;18.206;2022-11-15T15:31:13;66.68;;;23.60;;
23394;SDS011;11870;53.084;18.206;2022-11-15T15:33:40;114.22;;;48.13;;
23394;SDS011;11870;53.084;18.206;2022-11-15T15:36:17;66.53;;;24.00;;
23394;SDS011;11870;53.084;18.206;2022-11-15T15:38:44;67.57;;;24.45;;
23394;SDS011;11870;53.084;18.206;2022-11-15T15:41:12;63.00;;;23.63;;
23394;SDS011;11870;53.084;18.206;2022-11-15T15:43:39;88.85;;;40.17;;
23394;SDS011;11870;53.084;18.206;2022-11-15T15:46:12;96.45;;;51.47;;
23394;SDS011;11870;53.084;18.206;2022-11-15T15:48:40;64.35;;;23.88;;
23394;SDS011;11870;53.084;18.206;2022-11-15T15:51:06;68.93;;;28.25;;
23394;SDS011;11870;53.084;18.206;2022-11-15T15:53:33;73.82;;;26.83;;
23394;SDS011;11870;53.084;18.206;2022-11-15T15:55:59;64.85;;;28.73;;
23394;SDS011;11870;53.084;18.206;2022-11-15T15:58:25;68.35;;;25.40;;
23394;SDS011;11870;53.084;18.206;2022-11-15T16:04:32;71.05;;;25.42;;
23394;SDS011;11870;53.084;18.206;2022-11-15T16:11:04;95.40;;;44.25;;
23394;SDS011;11870;53.084;18.206;2022-11-15T16:17:18;84.40;;;30.45;;
23394;SDS011;11870;53.084;18.206;2022-11-15T16:19:46;118.63;;;47.90;;
23394;SDS011;11870;53.084;18.206;2022-11-15T16:22:12;82.82;;;31.23;;
23394;SDS011;11870;53.084;18.206;2022-11-15T16:24:38;86.25;;;30.67;;
23394;SDS011;11870;53.084;18.206;2022-11-15T16:27:04;90.80;;;34.78;;
23394;SDS011;11870;53.084;18.206;2022-11-15T16:29:30;75.68;;;28.73;;
23394;SDS011;11870;53.084;18.206;2022-11-15T16:31:56;70.18;;;25.08;;
23394;SDS011;11870;53.084;18.206;2022-11-15T16:34:22;81.97;;;27.63;;
23394;SDS011;11870;53.084;18.206;2022-11-15T16:36:49;97.85;;;38.20;;
23394;SDS011;11870;53.084;18.206;2022-11-15T16:39:16;79.78;;;26.45;;
23394;SDS011;11870;53.084;18.206;2022-11-15T16:41:43;82.38;;;29.80;;
23394;SDS011;11870;53.084;18.206;2022-11-15T16:44:12;103.38;;;38.38;;
23394;SDS011;11870;53.084;18.206;2022-11-15T16:46:42;91.13;;;37.70;;
23394;SDS011;11870;53.084;18.206;2022-11-15T16:49:14;85.78;;;37.45;;
23394;SDS011;11870;53.084;18.206;2022-11-15T16:51:40;88.20;;;30.88;;
23394;SDS011;11870;53.084;18.206;2022-11-15T16:54:07;86.70;;;33.97;;
23394;SDS011;11870;53.084;18.206;2022-11-15T16:56:33;96.30;;;36.85;;
23394;SDS011;11870;53.084;18.206;2022-11-15T16:58:59;118.00;;;47.13;;
23394;SDS011;11870;53.084;18.206;2022-11-15T17:01:27;86.32;;;31.33;;
23394;SDS011;11870;53.084;18.206;2022-11-15T17:03:54;166.63;;;70.22;;
23394;SDS011;11870;53.084;18.206;2022-11-15T17:06:21;159.70;;;67.90;;
23394;SDS011;11870;53.084;18.206;2022-11-15T17:08:48;182.65;;;82.03;;
23394;SDS011;11870;53.084;18.206;2022-11-15T17:11:15;106.28;;;39.67;;
23394;SDS011;11870;53.084;18.206;2022-11-15T17:13:43;109.30;;;42.97;;
23394;SDS011;11870;53.084;18.206;2022-11-15T17:16:13;132.05;;;54.25;;
23394;SDS011;11870;53.084;18.206;2022-11-15T17:18:43;171.38;;;83.57;;
23394;SDS011;11870;53.084;18.206;2022-11-15T17:21:12;87.13;;;31.98;;
23394;SDS011;11870;53.084;18.206;2022-11-15T17:23:40;81.53;;;27.02;;
23394;SDS011;11870;53.084;18.206;2022-11-15T17:26:07;85.85;;;28.42;;